sensor_id;sensor_type;location;lat;lon;timestamp;P1;durP1;ratioP1;P2;durP2;ratioP2
81651;SDS011;71061;55.714;37.794;2024-03-02T00:00:21;48.60;;;24.08;;
81651;SDS011;71061;55.714;37.794;2024-03-02T00:02:48;50.28;;;25.08;;
81651;SDS011;71061;55.714;37.794;2024-03-02T00:05:18;47.95;;;23.50;;
81651;SDS011;71061;55.714;37.794;2024-03-02T00:07:51;46.13;;;21.67;;
81651;SDS011;71061;55.714;37.794;2024-03-02T00:10:20;48.35;;;23.10;;
81651;SDS011;71061;55.714;37.794;2024-03-02T00:12:50;47.83;;;23.60;;
81651;SDS011;71061;55.714;37.794;2024-03-02T00:17:54;65.13;;;24.42;;
81651;SDS011;71061;55.714;37.794;2024-03-02T00:20:22;49.88;;;23.13;;
81651;SDS011;71061;55.714;37.794;2024-03-02T00:22:50;51.08;;;25.17;;
81651;SDS011;71061;55.714;37.794;2024-03-02T00:25:16;49.17;;;23.85;;
81651;SDS011;71061;55.714;37.794;2024-03-02T00:27:47;41.05;;;22.48;;
81651;SDS011;71061;55.714;37.794;2024-03-02T00:33:11;50.80;;;25.10;;
81651;SDS011;71061;55.714;37.794;2024-03-02T00:35:36;50.83;;;23.40;;
81651;SDS011;71061;55.714;37.794;2024-03-02T00:38:06;49.58;;;26.88;;
81651;SDS011;71061;55.714;37.794;2024-03-02T00:40:31;47.10;;;24.35;;
81651;SDS011;71061;55.714;37.794;2024-03-02T00:42:57;54.30;;;27.20;;
81651;SDS011;71061;55.714;37.794;2024-03-02T00:45:24;45.90;;;26.27;;
81651;SDS011;71061;55.714;37.794;2024-03-02T00:47:51;49.47;;;27.50;;
81651;SDS011;71061;55.714;37.794;2024-03-02T00:50:17;51.35;;;26.63;;
81651;SDS011;71061;55.714;37.794;2024-03-02T00:52:42;47.90;;;27.60;;
81651;SDS011;71061;55.714;37.794;2024-03-02T00:55:08;51.60;;;27.15;;
81651;SDS011;71061;55.714;37.794;2024-03-02T00:57:34;55.80;;;29.45;;
81651;SDS011;71061;55.714;37.794;2024-03-02T01:00:00;54.20;;;30.73;;
81651;SDS011;71061;55.714;37.794;2024-03-02T01:02:26;50.70;;;28.33;;
81651;SDS011;71061;55.714;37.794;2024-03-02T01:04:52;57.60;;;30.30;;
81651;SDS011;71061;55.714;37.794;2024-03-02T01:07:17;49.88;;;27.50;;
81651;SDS011;71061;55.714;37.794;2024-03-02T01:09:43;54.97;;;30.08;;
81651;SDS011;71061;55.714;37.794;2024-03-02T01:12:10;53.22;;;29.27;;
81651;SDS011;71061;55.714;37.794;2024-03-02T01:14:36;58.15;;;29.65;;
81651;SDS011;71061;55.714;37.794;2024-03-02T01:17:01;51.40;;;29.05;;
81651;SDS011;71061;55.714;37.794;2024-03-02T01:19:29;53.72;;;30.35;;
81651;SDS011;71061;55.714;37.794;2024-03-02T01:21:55;55.05;;;28.95;;
81651;SDS011;71061;55.714;37.794;2024-03-02T01:24:22;56.60;;;29.83;;
81651;SDS011;71061;55.714;37.794;2024-03-02T01:26:47;55.70;;;29.77;;
81651;SDS011;71061;55.714;37.794;2024-03-02T01:29:13;56.50;;;31.10;;
81651;SDS011;71061;55.714;37.794;2024-03-02T01:31:39;51.15;;;29.77;;
81651;SDS011;71061;55.714;37.794;2024-03-02T01:34:07;59.80;;;29.63;;
81651;SDS011;71061;55.714;37.794;2024-03-02T01:36:34;50.95;;;29.67;;
81651;SDS011;71061;55.714;37.794;2024-03-02T01:38:59;58.78;;;27.33;;
81651;SDS011;71061;55.714;37.794;2024-03-02T01:41:26;48.42;;;29.33;;
81651;SDS011;71061;55.714;37.794;2024-03-02T01:43:52;51.67;;;30.05;;
81651;SDS011;71061;55.714;37.794;2024-03-02T01:46:18;55.88;;;30.88;;
81651;SDS011;71061;55.714;37.794;2024-03-02T01:48:43;46.58;;;27.67;;
81651;SDS011;71061;55.714;37.794;2024-03-02T01:51:09;55.08;;;31.75;;
81651;SDS011;71061;55.714;37.794;2024-03-02T01:53:35;52.00;;;29.83;;
81651;SDS011;71061;55.714;37.794;2024-03-02T01:56:01;51.88;;;28.98;;
81651;SDS011;71061;55.714;37.794;2024-03-02T01:58:27;49.92;;;28.60;;
81651;SDS011;71061;55.714;37.794;2024-03-02T02:00:53;55.33;;;28.77;;
81651;SDS011;71061;55.714;37.794;2024-03-02T02:03:19;54.70;;;28.92;;
81651;SDS011;71061;55.714;37.794;2024-03-02T02:05:45;55.65;;;29.67;;
81651;SDS011;71061;55.714;37.794;2024-03-02T02:08:12;53.95;;;28.50;;
81651;SDS011;71061;55.714;37.794;2024-03-02T02:10:38;52.72;;;28.35;;
81651;SDS011;71061;55.714;37.794;2024-03-02T02:13:03;53.70;;;27.60;;
81651;SDS011;71061;55.714;37.794;2024-03-02T02:15:30;51.75;;;28.38;;
81651;SDS011;71061;55.714;37.794;2024-03-02T02:17:56;50.60;;;28.60;;
81651;SDS011;71061;55.714;37.794;2024-03-02T02:20:42;49.10;;;28.02;;
81651;SDS011;71061;55.714;37.794;2024-03-02T02:23:08;58.13;;;28.92;;
81651;SDS011;71061;55.714;37.794;2024-03-02T02:25:35;50.00;;;28.05;;
81651;SDS011;71061;55.714;37.794;2024-03-02T02:28:01;51.58;;;25.65;;
81651;SDS011;71061;55.714;37.794;2024-03-02T02:30:28;46.97;;;25.05;;
81651;SDS011;71061;55.714;37.794;2024-03-02T02:32:55;50.75;;;26.35;;
81651;SDS011;71061;55.714;37.794;2024-03-02T02:35:21;52.55;;;26.75;;
81651;SDS011;71061;55.714;37.794;2024-03-02T02:37:47;44.72;;;26.42;;
81651;SDS011;71061;55.714;37.794;2024-03-02T02:40:14;54.33;;;27.08;;
81651;SDS011;71061;55.714;37.794;2024-03-02T02:42:40;54.17;;;28.00;;
81651;SDS011;71061;55.714;37.794;2024-03-02T02:45:06;53.50;;;27.58;;
81651;SDS011;71061;55.714;37.794;2024-03-02T02:47:32;61.80;;;30.13;;
81651;SDS011;71061;55.714;37.794;2024-03-02T02:50:01;51.58;;;29.17;;
81651;SDS011;71061;55.714;37.794;2024-03-02T02:52:31;53.38;;;28.80;;
81651;SDS011;71061;55.714;37.794;2024-03-02T02:54:58;55.03;;;29.90;;
81651;SDS011;71061;55.714;37.794;2024-03-02T02:57:24;53.03;;;29.10;;
81651;SDS011;71061;55.714;37.794;2024-03-02T02:59:50;59.17;;;30.40;;
81651;SDS011;71061;55.714;37.794;2024-03-02T03:02:16;55.03;;;26.23;;
81651;SDS011;71061;55.714;37.794;2024-03-02T03:04:42;56.05;;;31.48;;
81651;SDS011;71061;55.714;37.794;2024-03-02T03:07:07;57.95;;;30.95;;
81651;SDS011;71061;55.714;37.794;2024-03-02T03:09:33;57.17;;;32.05;;
81651;SDS011;71061;55.714;37.794;2024-03-02T03:12:04;54.10;;;30.85;;
81651;SDS011;71061;55.714;37.794;2024-03-02T03:14:29;57.58;;;30.65;;
81651;SDS011;71061;55.714;37.794;2024-03-02T03:16:55;59.10;;;29.17;;
81651;SDS011;71061;55.714;37.794;2024-03-02T03:19:21;58.17;;;29.30;;
81651;SDS011;71061;55.714;37.794;2024-03-02T03:21:46;54.63;;;29.95;;
81651;SDS011;71061;55.714;37.794;2024-03-02T03:24:12;59.20;;;30.02;;
81651;SDS011;71061;55.714;37.794;2024-03-02T03:26:38;51.17;;;27.17;;
81651;SDS011;71061;55.714;37.794;2024-03-02T03:29:04;53.83;;;27.58;;
81651;SDS011;71061;55.714;37.794;2024-03-02T03:31:30;53.70;;;28.52;;
81651;SDS011;71061;55.714;37.794;2024-03-02T03:33:55;50.42;;;26.73;;
81651;SDS011;71061;55.714;37.794;2024-03-02T03:36:21;51.00;;;29.55;;
81651;SDS011;71061;55.714;37.794;2024-03-02T03:38:47;52.33;;;28.50;;
81651;SDS011;71061;55.714;37.794;2024-03-02T03:41:13;56.00;;;27.00;;
81651;SDS011;71061;55.714;37.794;2024-03-02T03:43:39;48.25;;;27.38;;
81651;SDS011;71061;55.714;37.794;2024-03-02T03:46:04;55.20;;;28.42;;
81651;SDS011;71061;55.714;37.794;2024-03-02T03:48:30;53.97;;;27.17;;
81651;SDS011;71061;55.714;37.794;2024-03-02T03:50:56;51.15;;;27.60;;
81651;SDS011;71061;55.714;37.794;2024-03-02T03:53:22;52.17;;;27.73;;
81651;SDS011;71061;55.714;37.794;2024-03-02T03:55:48;47.42;;;27.33;;
81651;SDS011;71061;55.714;37.794;2024-03-02T03:58:14;47.72;;;27.02;;
81651;SDS011;71061;55.714;37.794;2024-03-02T04:00:42;50.13;;;26.65;;
81651;SDS011;71061;55.714;37.794;2024-03-02T04:03:07;50.17;;;26.73;;
81651;SDS011;71061;55.714;37.794;2024-03-02T04:05:33;51.33;;;27.17;;
81651;SDS011;71061;55.714;37.794;2024-03-02T04:07:59;53.22;;;29.42;;
81651;SDS011;71061;55.714;37.794;2024-03-02T04:10:26;50.30;;;27.00;;
81651;SDS011;71061;55.714;37.794;2024-03-02T04:12:52;52.15;;;26.08;;
81651;SDS011;71061;55.714;37.794;2024-03-02T04:15:17;46.35;;;26.27;;
81651;SDS011;71061;55.714;37.794;2024-03-02T04:17:44;52.88;;;28.27;;
81651;SDS011;71061;55.714;37.794;2024-03-02T04:20:09;53.30;;;28.77;;
81651;SDS011;71061;55.714;37.794;2024-03-02T04:22:37;55.03;;;29.52;;
81651;SDS011;71061;55.714;37.794;2024-03-02T04:25:03;50.60;;;26.98;;
81651;SDS011;71061;55.714;37.794;2024-03-02T04:27:30;50.28;;;29.20;;
81651;SDS011;71061;55.714;37.794;2024-03-02T04:29:58;54.65;;;29.60;;
81651;SDS011;71061;55.714;37.794;2024-03-02T04:32:26;51.35;;;28.20;;
81651;SDS011;71061;55.714;37.794;2024-03-02T04:34:52;56.28;;;30.42;;
81651;SDS011;71061;55.714;37.794;2024-03-02T04:37:18;56.58;;;27.40;;
81651;SDS011;71061;55.714;37.794;2024-03-02T04:39:44;54.53;;;29.60;;
81651;SDS011;71061;55.714;37.794;2024-03-02T04:42:09;56.13;;;28.67;;
81651;SDS011;71061;55.714;37.794;2024-03-02T04:44:35;56.58;;;28.73;;
81651;SDS011;71061;55.714;37.794;2024-03-02T04:47:03;63.22;;;31.52;;
81651;SDS011;71061;55.714;37.794;2024-03-02T04:49:29;57.67;;;31.75;;
81651;SDS011;71061;55.714;37.794;2024-03-02T04:51:55;58.53;;;32.42;;
81651;SDS011;71061;55.714;37.794;2024-03-02T04:54:22;57.67;;;31.40;;
81651;SDS011;71061;55.714;37.794;2024-03-02T04:56:47;56.47;;;30.92;;
81651;SDS011;71061;55.714;37.794;2024-03-02T04:59:15;56.20;;;29.27;;
81651;SDS011;71061;55.714;37.794;2024-03-02T05:01:42;61.55;;;31.38;;
81651;SDS011;71061;55.714;37.794;2024-03-02T05:04:08;65.10;;;33.95;;
81651;SDS011;71061;55.714;37.794;2024-03-02T05:06:38;62.58;;;33.72;;
81651;SDS011;71061;55.714;37.794;2024-03-02T05:09:05;65.88;;;35.80;;
81651;SDS011;71061;55.714;37.794;2024-03-02T05:11:32;71.75;;;36.60;;
81651;SDS011;71061;55.714;37.794;2024-03-02T05:14:18;62.15;;;36.17;;
81651;SDS011;71061;55.714;37.794;2024-03-02T05:16:44;66.95;;;35.08;;
81651;SDS011;71061;55.714;37.794;2024-03-02T05:19:10;58.90;;;35.75;;
81651;SDS011;71061;55.714;37.794;2024-03-02T05:21:35;61.35;;;33.30;;
81651;SDS011;71061;55.714;37.794;2024-03-02T05:24:01;64.95;;;34.95;;
81651;SDS011;71061;55.714;37.794;2024-03-02T05:26:27;63.58;;;35.80;;
81651;SDS011;71061;55.714;37.794;2024-03-02T05:28:53;61.22;;;33.00;;
81651;SDS011;71061;55.714;37.794;2024-03-02T05:31:19;58.58;;;34.30;;
81651;SDS011;71061;55.714;37.794;2024-03-02T05:33:45;66.10;;;34.78;;
81651;SDS011;71061;55.714;37.794;2024-03-02T05:36:11;59.03;;;32.03;;
81651;SDS011;71061;55.714;37.794;2024-03-02T05:38:36;60.10;;;32.20;;
81651;SDS011;71061;55.714;37.794;2024-03-02T05:41:02;62.38;;;32.70;;
81651;SDS011;71061;55.714;37.794;2024-03-02T05:43:28;60.70;;;32.83;;
81651;SDS011;71061;55.714;37.794;2024-03-02T05:45:54;71.43;;;36.60;;
81651;SDS011;71061;55.714;37.794;2024-03-02T05:48:20;72.95;;;35.85;;
81651;SDS011;71061;55.714;37.794;2024-03-02T05:50:46;60.72;;;35.15;;
81651;SDS011;71061;55.714;37.794;2024-03-02T05:53:11;64.97;;;36.28;;
81651;SDS011;71061;55.714;37.794;2024-03-02T05:55:37;70.97;;;37.67;;
81651;SDS011;71061;55.714;37.794;2024-03-02T05:58:03;69.97;;;36.40;;
81651;SDS011;71061;55.714;37.794;2024-03-02T06:00:43;67.60;;;35.58;;
81651;SDS011;71061;55.714;37.794;2024-03-02T06:03:09;67.40;;;37.88;;
81651;SDS011;71061;55.714;37.794;2024-03-02T06:05:34;73.57;;;42.75;;
81651;SDS011;71061;55.714;37.794;2024-03-02T06:08:00;75.53;;;40.40;;
81651;SDS011;71061;55.714;37.794;2024-03-02T06:10:26;79.80;;;41.53;;
81651;SDS011;71061;55.714;37.794;2024-03-02T06:12:52;72.60;;;37.60;;
81651;SDS011;71061;55.714;37.794;2024-03-02T06:15:18;79.47;;;39.55;;
81651;SDS011;71061;55.714;37.794;2024-03-02T06:17:44;70.00;;;37.28;;
81651;SDS011;71061;55.714;37.794;2024-03-02T06:20:10;70.82;;;38.72;;
81651;SDS011;71061;55.714;37.794;2024-03-02T06:22:36;73.38;;;38.58;;
81651;SDS011;71061;55.714;37.794;2024-03-02T06:25:02;73.38;;;41.22;;
81651;SDS011;71061;55.714;37.794;2024-03-02T06:27:29;65.22;;;37.00;;
81651;SDS011;71061;55.714;37.794;2024-03-02T06:29:54;66.20;;;35.22;;
81651;SDS011;71061;55.714;37.794;2024-03-02T06:32:20;64.50;;;35.33;;
81651;SDS011;71061;55.714;37.794;2024-03-02T06:34:46;70.15;;;35.65;;
81651;SDS011;71061;55.714;37.794;2024-03-02T06:37:12;74.72;;;36.50;;
81651;SDS011;71061;55.714;37.794;2024-03-02T06:39:38;70.15;;;35.55;;
81651;SDS011;71061;55.714;37.794;2024-03-02T06:42:04;64.28;;;32.88;;
81651;SDS011;71061;55.714;37.794;2024-03-02T06:44:30;67.97;;;33.28;;
81651;SDS011;71061;55.714;37.794;2024-03-02T06:46:55;74.93;;;34.17;;
81651;SDS011;71061;55.714;37.794;2024-03-02T06:49:21;63.65;;;34.20;;
81651;SDS011;71061;55.714;37.794;2024-03-02T06:51:47;64.85;;;33.15;;
81651;SDS011;71061;55.714;37.794;2024-03-02T06:57:00;61.25;;;32.42;;
81651;SDS011;71061;55.714;37.794;2024-03-02T06:59:26;64.00;;;34.20;;
81651;SDS011;71061;55.714;37.794;2024-03-02T07:01:51;63.30;;;37.67;;
81651;SDS011;71061;55.714;37.794;2024-03-02T07:04:17;68.20;;;33.22;;
81651;SDS011;71061;55.714;37.794;2024-03-02T07:06:43;69.70;;;33.95;;
81651;SDS011;71061;55.714;37.794;2024-03-02T07:09:09;67.43;;;36.70;;
81651;SDS011;71061;55.714;37.794;2024-03-02T07:11:36;66.65;;;33.13;;
81651;SDS011;71061;55.714;37.794;2024-03-02T07:14:02;64.53;;;32.75;;
81651;SDS011;71061;55.714;37.794;2024-03-02T07:16:28;62.05;;;33.28;;
81651;SDS011;71061;55.714;37.794;2024-03-02T07:18:55;67.47;;;35.22;;
81651;SDS011;71061;55.714;37.794;2024-03-02T07:21:22;62.88;;;34.42;;
81651;SDS011;71061;55.714;37.794;2024-03-02T07:23:48;66.80;;;34.92;;
81651;SDS011;71061;55.714;37.794;2024-03-02T07:26:14;62.60;;;33.10;;
81651;SDS011;71061;55.714;37.794;2024-03-02T07:28:41;68.38;;;33.55;;
81651;SDS011;71061;55.714;37.794;2024-03-02T07:31:07;64.47;;;35.17;;
81651;SDS011;71061;55.714;37.794;2024-03-02T07:33:33;65.25;;;35.78;;
81651;SDS011;71061;55.714;37.794;2024-03-02T07:35:59;62.55;;;34.17;;
81651;SDS011;71061;55.714;37.794;2024-03-02T07:38:26;65.53;;;31.92;;
81651;SDS011;71061;55.714;37.794;2024-03-02T07:40:53;63.90;;;33.85;;
81651;SDS011;71061;55.714;37.794;2024-03-02T07:43:19;63.03;;;32.90;;
81651;SDS011;71061;55.714;37.794;2024-03-02T07:45:46;71.40;;;36.35;;
81651;SDS011;71061;55.714;37.794;2024-03-02T07:48:12;63.33;;;32.10;;
81651;SDS011;71061;55.714;37.794;2024-03-02T07:50:38;61.28;;;32.63;;
81651;SDS011;71061;55.714;37.794;2024-03-02T07:53:04;65.55;;;32.75;;
81651;SDS011;71061;55.714;37.794;2024-03-02T07:55:31;64.55;;;32.35;;
81651;SDS011;71061;55.714;37.794;2024-03-02T07:57:57;61.85;;;33.08;;
81651;SDS011;71061;55.714;37.794;2024-03-02T08:00:34;63.80;;;31.48;;
81651;SDS011;71061;55.714;37.794;2024-03-02T08:03:00;62.05;;;33.05;;
81651;SDS011;71061;55.714;37.794;2024-03-02T08:05:26;64.47;;;30.70;;
81651;SDS011;71061;55.714;37.794;2024-03-02T08:07:52;57.60;;;31.13;;
81651;SDS011;71061;55.714;37.794;2024-03-02T08:10:18;58.25;;;29.15;;
81651;SDS011;71061;55.714;37.794;2024-03-02T08:12:44;56.38;;;29.25;;
81651;SDS011;71061;55.714;37.794;2024-03-02T08:15:10;60.42;;;31.08;;
81651;SDS011;71061;55.714;37.794;2024-03-02T08:17:38;58.65;;;32.70;;
81651;SDS011;71061;55.714;37.794;2024-03-02T08:20:10;56.72;;;30.17;;
81651;SDS011;71061;55.714;37.794;2024-03-02T08:22:37;56.33;;;30.00;;
81651;SDS011;71061;55.714;37.794;2024-03-02T08:25:02;59.60;;;31.70;;
81651;SDS011;71061;55.714;37.794;2024-03-02T08:27:29;59.00;;;30.42;;
81651;SDS011;71061;55.714;37.794;2024-03-02T08:29:57;58.70;;;30.55;;
81651;SDS011;71061;55.714;37.794;2024-03-02T08:32:23;54.63;;;28.20;;
81651;SDS011;71061;55.714;37.794;2024-03-02T08:34:49;55.53;;;28.67;;
81651;SDS011;71061;55.714;37.794;2024-03-02T08:37:15;59.63;;;30.35;;
81651;SDS011;71061;55.714;37.794;2024-03-02T08:39:41;54.50;;;29.83;;
81651;SDS011;71061;55.714;37.794;2024-03-02T08:42:06;52.55;;;28.20;;
81651;SDS011;71061;55.714;37.794;2024-03-02T08:44:32;55.42;;;28.15;;
81651;SDS011;71061;55.714;37.794;2024-03-02T08:46:58;53.47;;;28.25;;
81651;SDS011;71061;55.714;37.794;2024-03-02T08:49:24;56.58;;;29.30;;
81651;SDS011;71061;55.714;37.794;2024-03-02T08:51:50;56.17;;;30.00;;
81651;SDS011;71061;55.714;37.794;2024-03-02T08:54:21;52.22;;;29.40;;
81651;SDS011;71061;55.714;37.794;2024-03-02T08:56:48;53.15;;;29.83;;
81651;SDS011;71061;55.714;37.794;2024-03-02T09:04:51;48.30;;;26.27;;
81651;SDS011;71061;55.714;37.794;2024-03-02T09:07:18;45.40;;;25.95;;
81651;SDS011;71061;55.714;37.794;2024-03-02T09:09:43;48.63;;;27.08;;
81651;SDS011;71061;55.714;37.794;2024-03-02T09:12:09;49.40;;;27.63;;
81651;SDS011;71061;55.714;37.794;2024-03-02T09:14:36;52.15;;;26.73;;
81651;SDS011;71061;55.714;37.794;2024-03-02T09:17:02;52.33;;;26.98;;
81651;SDS011;71061;55.714;37.794;2024-03-02T09:19:29;51.97;;;25.83;;
81651;SDS011;71061;55.714;37.794;2024-03-02T09:21:55;44.00;;;24.70;;
81651;SDS011;71061;55.714;37.794;2024-03-02T09:24:21;53.63;;;26.38;;
81651;SDS011;71061;55.714;37.794;2024-03-02T09:26:47;48.95;;;27.90;;
81651;SDS011;71061;55.714;37.794;2024-03-02T09:29:13;48.05;;;26.88;;
81651;SDS011;71061;55.714;37.794;2024-03-02T09:31:40;48.50;;;26.63;;
81651;SDS011;71061;55.714;37.794;2024-03-02T09:34:06;52.75;;;26.70;;
81651;SDS011;71061;55.714;37.794;2024-03-02T09:36:32;55.40;;;27.73;;
81651;SDS011;71061;55.714;37.794;2024-03-02T09:38:58;49.50;;;26.63;;
81651;SDS011;71061;55.714;37.794;2024-03-02T09:41:24;52.05;;;28.35;;
81651;SDS011;71061;55.714;37.794;2024-03-02T09:43:50;49.17;;;25.75;;
81651;SDS011;71061;55.714;37.794;2024-03-02T09:46:16;47.83;;;26.80;;
81651;SDS011;71061;55.714;37.794;2024-03-02T09:48:43;52.30;;;26.20;;
81651;SDS011;71061;55.714;37.794;2024-03-02T09:51:09;47.67;;;25.55;;
81651;SDS011;71061;55.714;37.794;2024-03-02T09:53:36;49.83;;;24.90;;
81651;SDS011;71061;55.714;37.794;2024-03-02T09:56:01;47.50;;;27.02;;
81651;SDS011;71061;55.714;37.794;2024-03-02T09:58:28;51.35;;;27.15;;
81651;SDS011;71061;55.714;37.794;2024-03-02T10:00:54;49.35;;;27.42;;
81651;SDS011;71061;55.714;37.794;2024-03-02T10:03:20;52.80;;;25.77;;
81651;SDS011;71061;55.714;37.794;2024-03-02T10:05:47;46.13;;;25.15;;
81651;SDS011;71061;55.714;37.794;2024-03-02T10:08:12;53.00;;;27.15;;
81651;SDS011;71061;55.714;37.794;2024-03-02T10:10:39;50.20;;;26.50;;
81651;SDS011;71061;55.714;37.794;2024-03-02T10:13:07;48.47;;;26.60;;
81651;SDS011;71061;55.714;37.794;2024-03-02T10:15:34;48.92;;;25.60;;
81651;SDS011;71061;55.714;37.794;2024-03-02T10:18:00;46.40;;;24.73;;
81651;SDS011;71061;55.714;37.794;2024-03-02T10:20:26;50.42;;;26.85;;
81651;SDS011;71061;55.714;37.794;2024-03-02T10:22:55;46.47;;;24.92;;
81651;SDS011;71061;55.714;37.794;2024-03-02T10:25:29;45.08;;;23.98;;
81651;SDS011;71061;55.714;37.794;2024-03-02T10:27:57;44.17;;;24.20;;
81651;SDS011;71061;55.714;37.794;2024-03-02T10:30:25;46.95;;;23.80;;
81651;SDS011;71061;55.714;37.794;2024-03-02T10:32:53;46.47;;;23.10;;
81651;SDS011;71061;55.714;37.794;2024-03-02T10:35:20;43.25;;;22.73;;
81651;SDS011;71061;55.714;37.794;2024-03-02T10:37:49;43.08;;;22.55;;
81651;SDS011;71061;55.714;37.794;2024-03-02T10:40:15;41.92;;;22.58;;
81651;SDS011;71061;55.714;37.794;2024-03-02T10:42:41;45.88;;;22.95;;
81651;SDS011;71061;55.714;37.794;2024-03-02T10:45:10;43.85;;;22.60;;
81651;SDS011;71061;55.714;37.794;2024-03-02T10:47:36;42.05;;;22.65;;
81651;SDS011;71061;55.714;37.794;2024-03-02T10:50:04;43.78;;;22.70;;
81651;SDS011;71061;55.714;37.794;2024-03-02T10:52:35;38.83;;;21.58;;
81651;SDS011;71061;55.714;37.794;2024-03-02T10:55:01;41.67;;;21.10;;
81651;SDS011;71061;55.714;37.794;2024-03-02T11:00:00;39.92;;;22.35;;
81651;SDS011;71061;55.714;37.794;2024-03-02T11:02:29;44.03;;;21.50;;
81651;SDS011;71061;55.714;37.794;2024-03-02T11:04:56;39.38;;;20.80;;
81651;SDS011;71061;55.714;37.794;2024-03-02T11:07:22;39.40;;;21.58;;
81651;SDS011;71061;55.714;37.794;2024-03-02T11:09:54;42.00;;;23.13;;
81651;SDS011;71061;55.714;37.794;2024-03-02T11:14:58;37.70;;;22.58;;
81651;SDS011;71061;55.714;37.794;2024-03-02T11:17:24;46.55;;;24.70;;
81651;SDS011;71061;55.714;37.794;2024-03-02T11:19:50;41.72;;;22.90;;
81651;SDS011;71061;55.714;37.794;2024-03-02T11:22:16;45.13;;;23.60;;
81651;SDS011;71061;55.714;37.794;2024-03-02T11:24:49;38.38;;;21.58;;
81651;SDS011;71061;55.714;37.794;2024-03-02T11:28:06;42.97;;;22.90;;
81651;SDS011;71061;55.714;37.794;2024-03-02T11:33:14;38.58;;;20.13;;
81651;SDS011;71061;55.714;37.794;2024-03-02T11:35:42;42.15;;;20.90;;
81651;SDS011;71061;55.714;37.794;2024-03-02T11:38:10;41.50;;;20.33;;
81651;SDS011;71061;55.714;37.794;2024-03-02T11:40:36;44.20;;;21.48;;
81651;SDS011;71061;55.714;37.794;2024-03-02T11:43:05;39.95;;;21.27;;
81651;SDS011;71061;55.714;37.794;2024-03-02T11:45:31;37.53;;;20.95;;
81651;SDS011;71061;55.714;37.794;2024-03-02T11:47:59;37.85;;;20.15;;
81651;SDS011;71061;55.714;37.794;2024-03-02T11:53:07;38.58;;;20.08;;
81651;SDS011;71061;55.714;37.794;2024-03-02T11:55:34;43.25;;;21.08;;
81651;SDS011;71061;55.714;37.794;2024-03-02T11:58:02;42.05;;;21.25;;
81651;SDS011;71061;55.714;37.794;2024-03-02T12:00:28;41.10;;;21.70;;
81651;SDS011;71061;55.714;37.794;2024-03-02T12:03:03;38.83;;;21.38;;
81651;SDS011;71061;55.714;37.794;2024-03-02T12:05:30;36.75;;;20.60;;
81651;SDS011;71061;55.714;37.794;2024-03-02T12:07:57;36.55;;;21.73;;
81651;SDS011;71061;55.714;37.794;2024-03-02T12:10:24;41.88;;;20.55;;
81651;SDS011;71061;55.714;37.794;2024-03-02T12:12:59;39.80;;;21.30;;
81651;SDS011;71061;55.714;37.794;2024-03-02T12:15:26;34.17;;;19.50;;
81651;SDS011;71061;55.714;37.794;2024-03-02T12:17:53;33.70;;;20.60;;
81651;SDS011;71061;55.714;37.794;2024-03-02T12:20:20;39.33;;;20.45;;
81651;SDS011;71061;55.714;37.794;2024-03-02T12:22:46;39.72;;;22.90;;
81651;SDS011;71061;55.714;37.794;2024-03-02T12:25:11;39.30;;;21.38;;
81651;SDS011;71061;55.714;37.794;2024-03-02T12:27:38;36.35;;;20.50;;
81651;SDS011;71061;55.714;37.794;2024-03-02T12:30:05;40.88;;;20.88;;
81651;SDS011;71061;55.714;37.794;2024-03-02T12:32:33;41.13;;;20.83;;
81651;SDS011;71061;55.714;37.794;2024-03-02T12:34:59;34.95;;;21.17;;
81651;SDS011;71061;55.714;37.794;2024-03-02T12:37:26;43.60;;;22.48;;
81651;SDS011;71061;55.714;37.794;2024-03-02T12:39:53;34.67;;;19.52;;
81651;SDS011;71061;55.714;37.794;2024-03-02T12:42:19;34.72;;;21.42;;
81651;SDS011;71061;55.714;37.794;2024-03-02T12:44:44;37.58;;;20.30;;
81651;SDS011;71061;55.714;37.794;2024-03-02T12:47:10;37.35;;;20.33;;
81651;SDS011;71061;55.714;37.794;2024-03-02T12:49:39;35.38;;;18.65;;
81651;SDS011;71061;55.714;37.794;2024-03-02T12:52:06;38.00;;;20.60;;
81651;SDS011;71061;55.714;37.794;2024-03-02T12:54:31;36.40;;;19.50;;
81651;SDS011;71061;55.714;37.794;2024-03-02T12:56:58;39.10;;;19.98;;
81651;SDS011;71061;55.714;37.794;2024-03-02T12:59:24;37.25;;;21.20;;
81651;SDS011;71061;55.714;37.794;2024-03-02T13:01:52;38.67;;;18.67;;
81651;SDS011;71061;55.714;37.794;2024-03-02T13:04:22;37.30;;;19.10;;
81651;SDS011;71061;55.714;37.794;2024-03-02T13:06:52;31.95;;;18.27;;
81651;SDS011;71061;55.714;37.794;2024-03-02T13:09:19;35.00;;;19.33;;
81651;SDS011;71061;55.714;37.794;2024-03-02T13:11:44;37.70;;;18.83;;
81651;SDS011;71061;55.714;37.794;2024-03-02T13:14:10;35.22;;;18.55;;
81651;SDS011;71061;55.714;37.794;2024-03-02T13:16:40;32.50;;;17.95;;
81651;SDS011;71061;55.714;37.794;2024-03-02T13:19:07;34.25;;;18.45;;
81651;SDS011;71061;55.714;37.794;2024-03-02T13:21:34;35.47;;;18.45;;
81651;SDS011;71061;55.714;37.794;2024-03-02T13:24:00;33.72;;;18.17;;
81651;SDS011;71061;55.714;37.794;2024-03-02T13:26:27;33.45;;;17.67;;
81651;SDS011;71061;55.714;37.794;2024-03-02T13:28:53;36.17;;;20.20;;
81651;SDS011;71061;55.714;37.794;2024-03-02T13:31:18;33.42;;;19.48;;
81651;SDS011;71061;55.714;37.794;2024-03-02T13:33:44;32.97;;;17.30;;
81651;SDS011;71061;55.714;37.794;2024-03-02T13:36:10;34.28;;;18.98;;
81651;SDS011;71061;55.714;37.794;2024-03-02T13:38:36;31.00;;;18.02;;
81651;SDS011;71061;55.714;37.794;2024-03-02T13:41:02;32.75;;;17.77;;
81651;SDS011;71061;55.714;37.794;2024-03-02T13:43:27;34.13;;;17.33;;
81651;SDS011;71061;55.714;37.794;2024-03-02T13:45:57;33.95;;;17.98;;
81651;SDS011;71061;55.714;37.794;2024-03-02T13:48:23;29.98;;;16.77;;
81651;SDS011;71061;55.714;37.794;2024-03-02T13:50:51;32.25;;;16.70;;
81651;SDS011;71061;55.714;37.794;2024-03-02T13:53:18;34.60;;;16.95;;
81651;SDS011;71061;55.714;37.794;2024-03-02T13:55:44;31.80;;;15.23;;
81651;SDS011;71061;55.714;37.794;2024-03-02T13:58:10;35.70;;;17.38;;
81651;SDS011;71061;55.714;37.794;2024-03-02T14:00:37;33.42;;;16.38;;
81651;SDS011;71061;55.714;37.794;2024-03-02T14:03:04;30.58;;;14.02;;
81651;SDS011;71061;55.714;37.794;2024-03-02T14:05:31;28.92;;;15.32;;
81651;SDS011;71061;55.714;37.794;2024-03-02T14:07:57;31.70;;;16.50;;
81651;SDS011;71061;55.714;37.794;2024-03-02T14:10:24;31.38;;;17.33;;
81651;SDS011;71061;55.714;37.794;2024-03-02T14:12:50;27.33;;;14.18;;
81651;SDS011;71061;55.714;37.794;2024-03-02T14:15:16;30.67;;;14.75;;
81651;SDS011;71061;55.714;37.794;2024-03-02T14:17:42;30.15;;;14.88;;
81651;SDS011;71061;55.714;37.794;2024-03-02T14:20:08;28.35;;;15.63;;
81651;SDS011;71061;55.714;37.794;2024-03-02T14:22:36;30.80;;;14.98;;
81651;SDS011;71061;55.714;37.794;2024-03-02T14:25:03;33.05;;;14.80;;
81651;SDS011;71061;55.714;37.794;2024-03-02T14:27:29;28.90;;;14.85;;
81651;SDS011;71061;55.714;37.794;2024-03-02T14:29:55;34.78;;;16.65;;